Time;durP1;ratioP1;P1;durP2;ratioP2;P2;SDS_P1;SDS_P2;PMS_P1;PMS_P2;Temp;Humidity;BMP_temperature;BMP_pressure;BME280_temperature;BME280_humidity;BME280_pressure;Samples;Min_cycle;Max_cycle;Signal;HPM_P1;HPM_P2
2022/11/16 00:01:06;;;;;;;36.20;22.17;;;;;;;6.98;100.00;-1832.28;5074119;28;20181;-59
2022/11/16 00:03:34;;;;;;;32.67;22.33;;;;;;;7.09;100.00;-2149.59;5073573;28;20220;-58
2022/11/16 00:06:02;;;;;;;36.30;22.67;;;;;;;7.05;100.00;1662.63;5073841;28;20201;-59
2022/11/16 00:08:30;;;;;;;36.97;21.50;;;;;;;7.05;100.00;3570.41;5073819;28;20242;-59
2022/11/16 00:11:06;;;;;;;34.63;22.57;;;;;;;7.15;100.00;3253.41;5073898;28;20198;-59
2022/11/16 00:13:33;;;;;;;34.97;22.40;;;;;;;7.04;100.00;3252.22;5073708;28;20587;-59
2022/11/16 00:16:01;;;;;;;30.40;21.77;;;;;;;7.01;100.00;3569.91;5073718;28;20185;-59
2022/11/16 00:18:28;;;;;;;32.73;21.57;;;;;;;7.03;100.00;3570.13;5074120;28;20185;-59
2022/11/16 00:20:55;;;;;;;33.17;21.43;;;;;;;6.84;100.00;2296.56;5074108;28;20188;-60
2022/11/16 00:23:22;;;;;;;40.23;24.00;;;;;;;6.87;100.00;1025.72;5073905;28;20555;-58
2022/11/16 00:25:49;;;;;;;31.77;20.70;;;;;;;6.91;100.00;1979.31;5073594;28;20195;-59
2022/11/16 00:28:18;;;;;;;30.20;19.83;;;;;;;6.69;100.00;3566.47;5073718;28;20276;-60
2022/11/16 00:30:45;;;;;;;30.50;19.43;;;;;;;6.59;100.00;5154.94;5073393;28;20230;-58
2022/11/16 00:33:15;;;;;;;33.47;20.60;;;;;;;6.50;100.00;2928.97;5073374;28;20741;-59
2022/11/16 00:35:42;;;;;;;37.30;23.77;;;;;;;6.61;100.00;-246.09;5073417;28;20192;-59
2022/11/16 00:38:09;;;;;;;44.07;25.63;;;;;;;6.88;100.00;-4371.06;5073770;28;20204;-60
2022/11/16 00:40:36;;;;;;;44.50;26.50;;;;;;;7.18;100.00;-7543.66;5073412;28;20185;-59
2022/11/16 00:43:03;;;;;;;37.47;23.23;;;;;;;7.24;100.00;-5641.09;5073464;28;20246;-60
2022/11/16 00:45:31;;;;;;;42.43;26.60;;;;;;;7.31;100.00;-3102.00;5073386;28;20173;-59
2022/11/16 00:47:58;;;;;;;33.07;21.70;;;;;;;7.22;100.00;1028.09;5073631;28;20228;-60
2022/11/16 00:50:25;;;;;;;37.67;22.60;;;;;;;7.31;100.00;2936.91;5073271;28;20622;-59
2022/11/16 00:52:53;;;;;;;33.60;23.43;;;;;;;7.33;100.00;2618.94;5072949;28;20279;-59
2022/11/16 00:55:20;;;;;;;36.23;23.00;;;;;;;7.15;100.00;2617.25;5073416;28;20653;-60
2022/11/16 00:57:47;;;;;;;34.93;23.07;;;;;;;7.24;100.00;1664.09;5073445;28;20208;-59
2022/11/16 01:00:15;;;;;;;36.73;22.80;;;;;;;7.17;100.00;1027.75;5073328;28;20185;-58
2022/11/16 01:02:43;;;;;;;37.27;23.07;;;;;;;6.98;100.00;708.66;5072682;28;20192;-58
2022/11/16 01:05:10;;;;;;;32.90;23.03;;;;;;;6.82;100.00;2296.44;5073062;28;20551;-58
2022/11/16 01:07:39;;;;;;;36.20;23.17;;;;;;;6.77;100.00;1342.75;5072631;28;20204;-59
2022/11/16 01:10:09;;;;;;;35.80;22.20;;;;;;;6.81;100.00;2296.34;5073325;28;20580;-60
2022/11/16 01:12:35;;;;;;;33.00;22.03;;;;;;;6.79;100.00;2931.84;5073160;28;20191;-59
2022/11/16 01:15:02;;;;;;;35.90;22.17;;;;;;;6.58;100.00;2612.03;5072637;28;20600;-60
2022/11/16 01:17:29;;;;;;;36.97;21.57;;;;;;;6.65;100.00;1024.25;5072503;28;20180;-59
2022/11/16 01:19:57;;;;;;;33.33;21.23;;;;;;;6.41;100.00;387.75;5072443;28;20185;-59
2022/11/16 01:22:24;;;;;;;45.23;23.63;;;;;;;6.39;100.00;-247.13;5072564;28;20192;-60
2022/11/16 01:24:51;;;;;;;46.53;22.07;;;;;;;6.30;100.00;-564.81;5072324;28;20180;-60
2022/11/16 01:27:18;;;;;;;32.37;20.87;;;;;;;6.08;100.00;1337.75;5072561;28;20713;-60
2022/11/16 01:29:45;;;;;;;36.83;21.17;;;;;;;6.02;100.00;385.53;5072210;28;20188;-59
2022/11/16 01:32:12;;;;;;;29.70;19.93;;;;;;;6.03;100.00;68.38;5072141;28;20618;-59
2022/11/16 01:34:39;;;;;;;37.10;21.60;;;;;;;6.10;100.00;68.75;5072432;28;20199;-60
2022/11/16 01:37:07;;;;;;;35.73;22.43;;;;;;;6.12;100.00;-882.72;5072287;28;20184;-59
2022/11/16 01:39:34;;;;;;;37.43;22.87;;;;;;;6.17;100.00;-1833.94;5072394;28;20559;-59
2022/11/16 01:42:01;;;;;;;35.70;21.60;;;;;;;6.19;100.00;-1833.88;5072132;28;20195;-59
2022/11/16 01:44:59;;;;;;;38.73;22.23;;;;;;;6.31;100.00;-1833.66;5071979;28;20185;-64
2022/11/16 01:47:27;;;;;;;38.07;21.03;;;;;;;6.08;100.00;-248.56;5010257;28;20222;-60
2022/11/16 01:49:58;;;;;;;33.83;20.80;;;;;;;6.15;100.00;703.59;5058803;28;20201;-58
2022/11/16 01:52:31;;;;;;;34.10;20.53;;;;;;;6.02;100.00;1972.00;5072535;28;20279;-59
2022/11/16 01:54:59;;;;;;;39.40;22.50;;;;;;;5.94;100.00;2288.72;5071928;28;20199;-59
2022/11/16 01:57:29;;;;;;;33.40;21.63;;;;;;;5.94;100.00;2606.16;5072317;28;20272;-59
2022/11/16 01:59:59;;;;;;;33.27;22.00;;;;;;;5.89;100.00;2923.03;5071815;28;20193;-59
2022/11/16 02:02:26;;;;;;;30.73;22.33;;;;;;;5.97;100.00;1971.63;5071860;28;20187;-59
2022/11/16 02:04:55;;;;;;;36.13;22.13;;;;;;;5.98;100.00;1019.84;5071758;28;20193;-59
2022/11/16 02:09:52;;;;;;;35.73;22.10;;;;;;;6.03;100.00;1337.44;5072010;28;20204;-58
2022/11/16 02:10:35;;;;;;;37.47;22.67;;;;;;;6.01;100.00;3241.63;5071640;28;20261;-59
2022/11/16 02:13:21;;;;;;;38.50;21.97;;;;;;;5.72;100.00;2921.41;5071660;28;20238;-59
2022/11/16 02:15:55;;;;;;;35.33;22.47;;;;;;;5.73;100.00;1652.47;5071911;28;20628;-60
2022/11/16 02:18:31;;;;;;;34.67;21.87;;;;;;;5.65;100.00;1017.63;5071860;28;20623;-58
2022/11/16 02:21:12;;;;;;;34.83;21.80;;;;;;;5.53;100.00;3554.03;5071591;28;20196;-59
2022/11/16 02:24:12;;;;;;;37.57;23.60;;;;;;;5.72;100.00;2921.41;5071426;28;20185;-59
2022/11/16 02:27:20;;;;;;;38.53;23.13;;;;;;;5.66;100.00;1017.66;5062673;28;20239;-59
2022/11/16 02:29:51;;;;;;;35.17;22.20;;;;;;;5.64;100.00;-884.41;5009832;28;20187;-58
2022/11/16 02:32:24;;;;;;;33.63;22.17;;;;;;;5.66;100.00;-250.47;5058410;28;20255;-59
2022/11/16 02:34:57;;;;;;;36.70;22.50;;;;;;;5.55;100.00;1651.06;5071722;28;20191;-60
2022/11/16 02:37:27;;;;;;;34.50;22.50;;;;;;;5.49;100.00;2601.97;5063592;28;20623;-59
2022/11/16 02:39:57;;;;;;;35.27;22.90;;;;;;;5.46;100.00;1333.34;5071425;28;20200;-59
2022/11/16 02:42:30;;;;;;;46.07;24.00;;;;;;;5.47;100.00;1333.44;5071652;28;20193;-59
2022/11/16 02:45:00;;;;;;;35.27;23.23;;;;;;;5.23;100.00;3233.72;5071779;28;20552;-59
2022/11/16 02:47:33;;;;;;;33.93;22.43;;;;;;;5.23;100.00;1648.66;5071560;28;20224;-58
2022/11/16 02:50:03;;;;;;;39.33;23.60;;;;;;;5.06;100.00;1013.72;5071657;28;20192;-59
2022/11/16 02:52:30;;;;;;;33.77;22.00;;;;;;;5.05;100.00;63.47;5071622;28;20628;-60
2022/11/16 02:54:57;;;;;;;34.63;22.53;;;;;;;5.18;100.00;-252.66;5071317;28;20189;-59
2022/11/16 02:57:39;;;;;;;35.60;23.10;;;;;;;5.15;100.00;-886.16;5071368;28;20190;-62
2022/11/16 03:00:12;;;;;;;35.20;23.77;;;;;;;5.00;100.00;-570.09;5071231;28;20189;-59
2022/11/16 03:02:45;;;;;;;38.27;23.00;;;;;;;5.10;100.00;-1202.94;5071530;28;20644;-60
2022/11/16 03:05:18;;;;;;;41.67;24.17;;;;;;;5.07;100.00;-2469.09;5071105;28;20234;-58
2022/11/16 03:07:48;;;;;;;42.80;25.73;;;;;;;5.19;100.00;-2785.47;5070977;28;20215;-60
2022/11/16 03:11:58;;;;;;;42.33;25.53;;;;;;;5.26;100.00;-2468.91;5071150;28;20283;-60
2022/11/16 03:13:07;;;;;;;43.47;25.33;;;;;;;5.21;100.00;-569.25;5070930;28;20626;-60
2022/11/16 03:15:38;;;;;;;42.50;25.07;;;;;;;5.14;100.00;1014.22;5071444;28;20208;-59
2022/11/16 03:18:07;;;;;;;39.90;24.87;;;;;;;5.11;100.00;1330.88;5070926;28;20192;-59
2022/11/16 03:20:37;;;;;;;47.77;26.80;;;;;;;5.03;100.00;1647.13;5071057;28;20195;-59
2022/11/16 03:23:08;;;;;;;52.67;29.10;;;;;;;5.11;100.00;1964.63;5071062;28;20185;-59
2022/11/16 03:25:41;;;;;;;49.27;28.07;;;;;;;5.09;100.00;1647.53;5070948;28;20260;-59
2022/11/16 03:28:13;;;;;;;53.23;32.20;;;;;;;4.98;100.00;1646.78;5071299;28;20209;-59
2022/11/16 03:30:49;;;;;;;55.33;35.30;;;;;;;4.93;100.00;1963.19;5071043;28;20199;-59
2022/11/16 03:33:22;;;;;;;55.10;33.67;;;;;;;4.76;100.00;3545.81;5070767;28;20220;-59
2022/11/16 03:35:56;;;;;;;46.40;31.33;;;;;;;4.83;100.00;3229.59;5071070;28;20277;-59
2022/11/16 03:38:26;;;;;;;42.67;30.87;;;;;;;4.55;100.00;3226.78;5071890;28;20176;-59
2022/11/16 03:40:57;;;;;;;50.70;32.70;;;;;;;4.59;100.00;3860.78;5057846;28;20529;-59
2022/11/16 03:43:26;;;;;;;63.60;36.40;;;;;;;4.49;100.00;60.63;5074227;28;20185;-60
2022/11/16 03:45:55;;;;;;;54.97;35.37;;;;;;;4.54;100.00;377.34;5074278;28;20246;-60
2022/11/16 03:48:22;;;;;;;66.93;38.33;;;;;;;4.57;100.00;-571.81;5074703;28;20671;-60
2022/11/16 03:50:49;;;;;;;115.60;44.50;;;;;;;4.41;100.00;-2469.69;5074379;28;20188;-59
2022/11/16 03:53:16;;;;;;;156.47;42.50;;;;;;;4.56;100.00;-3418.00;5057050;28;20251;-58
2022/11/16 03:55:43;;;;;;;152.70;44.73;;;;;;;4.70;100.00;-3418.09;5074206;28;20189;-58
2022/11/16 03:58:10;;;;;;;241.90;48.00;;;;;;;4.70;100.00;-2153.16;5074393;28;20548;-60
2022/11/16 04:00:37;;;;;;;495.77;62.30;;;;;;;4.57;100.00;-3101.91;5074004;28;20191;-60
2022/11/16 04:03:05;;;;;;;465.43;57.93;;;;;;;4.61;100.00;-3101.91;5074177;28;20189;-59
2022/11/16 04:24:50;;;;;;;448.40;53.37;;;;;;;4.65;100.00;-2469.47;5074048;28;20184;-59
2022/11/16 04:30:03;;;;;;;290.27;45.70;;;;;;;4.50;100.00;-888.44;5073757;28;20717;-59
2022/11/16 04:38:00;;;;;;;540.57;48.60;;;;;;;4.50;100.00;-3417.97;5053769;28;20787;-59
2022/11/16 04:40:29;;;;;;;359.77;45.20;;;;;;;4.41;100.00;-3417.91;5053588;28;20192;-59
2022/11/16 04:42:56;;;;;;;374.77;46.80;;;;;;;4.27;100.00;-5944.50;5053523;28;20186;-60
2022/11/16 04:48:08;;;;;;;488.50;44.63;;;;;;;4.47;100.00;-7208.47;5053589;28;20758;-59
2022/11/16 04:50:39;;;;;;;449.40;41.87;;;;;;;4.52;100.00;-6893.06;5052013;28;20196;-60
2022/11/16 04:53:06;;;;;;;437.70;39.27;;;;;;;4.56;100.00;-6261.72;5053039;28;20186;-59
2022/11/16 04:55:34;;;;;;;444.33;42.53;;;;;;;4.47;100.00;-5945.44;5053001;28;20185;-59
2022/11/16 04:58:01;;;;;;;399.63;41.83;;;;;;;4.50;100.00;-5313.84;5053220;28;20637;-58
2022/11/16 05:00:28;;;;;;;437.37;39.13;;;;;;;4.50;100.00;-5629.72;5035575;28;20185;-59
2022/11/16 05:02:55;;;;;;;382.97;38.27;;;;;;;4.58;100.00;-5945.94;5052941;28;20189;-59
2022/11/16 05:05:22;;;;;;;467.83;40.63;;;;;;;4.67;100.00;-5946.34;5052813;28;20185;-59
2022/11/16 05:07:50;;;;;;;393.60;36.80;;;;;;;4.61;100.00;-5630.19;5053116;28;20746;-60
2022/11/16 05:10:17;;;;;;;520.60;44.50;;;;;;;4.48;100.00;-5945.50;5052812;28;20195;-59
2022/11/16 05:12:44;;;;;;;462.93;39.93;;;;;;;4.73;100.00;-6262.56;5052517;28;20272;-59
2022/11/16 05:15:11;;;;;;;398.83;38.33;;;;;;;4.74;100.00;-6262.66;5053025;28;20644;-59
2022/11/16 05:17:38;;;;;;;390.80;40.30;;;;;;;4.71;100.00;-6578.38;5052420;28;20184;-59
2022/11/16 05:22:55;;;;;;;152.87;33.27;;;;;;;4.69;100.00;-7525.69;5052648;28;20311;-59
2022/11/16 05:25:22;;;;;;;221.10;40.33;;;;;;;4.52;100.00;-8471.38;5052553;28;20276;-60
2022/11/16 05:27:49;;;;;;;375.97;48.73;;;;;;;4.72;100.00;-9104.50;5052319;28;20209;-59
2022/11/16 05:30:16;;;;;;;380.17;43.17;;;;;;;4.84;100.00;-9421.31;5052582;28;20192;-59
2022/11/16 05:32:44;;;;;;;523.93;47.50;;;;;;;4.90;100.00;-9106.28;5051846;28;20233;-60
2022/11/16 05:35:11;;;;;;;294.73;35.93;;;;;;;5.03;100.00;-9423.34;5052504;28;20251;-60
2022/11/16 05:37:38;;;;;;;318.93;39.20;;;;;;;5.11;100.00;-9108.28;5052631;28;20178;-60
2022/11/16 05:40:08;;;;;;;195.53;35.00;;;;;;;5.10;100.00;-8792.38;5052334;28;20190;-60
2022/11/16 05:42:35;;;;;;;278.07;39.90;;;;;;;5.15;100.00;-9108.72;5052147;28;20204;-60
2022/11/16 05:45:02;;;;;;;108.40;32.83;;;;;;;5.25;100.00;-9109.66;5052461;28;20189;-59
2022/11/16 05:47:29;;;;;;;130.17;34.17;;;;;;;5.30;100.00;-9110.19;5052286;28;20228;-60
2022/11/16 05:49:56;;;;;;;121.10;36.13;;;;;;;5.36;100.00;-9110.78;5051948;28;20185;-59
2022/11/16 05:52:22;;;;;;;112.27;36.80;;;;;;;5.39;100.00;-9427.06;5052149;28;20182;-58
2022/11/16 05:54:49;;;;;;;197.80;39.57;;;;;;;5.55;100.00;-9428.63;5052160;28;20569;-59
2022/11/16 05:57:18;;;;;;;211.40;40.77;;;;;;;5.64;100.00;-9745.66;5052122;28;20188;-59
2022/11/16 05:59:44;;;;;;;160.87;37.93;;;;;;;5.67;100.00;-9429.91;5051681;28;20185;-59
2022/11/16 06:02:11;;;;;;;144.40;37.63;;;;;;;5.71;100.00;-9430.34;5051618;28;20264;-60
2022/11/16 06:04:38;;;;;;;115.70;37.33;;;;;;;5.84;100.00;-9431.69;5051865;28;20192;-56
2022/11/16 06:07:05;;;;;;;84.67;37.37;;;;;;;5.74;100.00;-9746.69;5052081;28;20185;-55
2022/11/16 06:09:32;;;;;;;79.00;36.63;;;;;;;5.88;100.00;-10380.50;5052032;28;20571;-57
2022/11/16 06:11:59;;;;;;;75.00;35.57;;;;;;;5.93;100.00;-10381.09;5051743;28;20285;-56
2022/11/16 06:14:27;;;;;;;80.53;36.53;;;;;;;6.01;100.00;-10698.16;5051832;28;20219;-56
2022/11/16 06:16:54;;;;;;;79.27;34.57;;;;;;;6.10;100.00;-10699.28;5051843;28;20182;-57
2022/11/16 06:19:21;;;;;;;74.07;34.60;;;;;;;6.06;100.00;-10698.78;5051582;28;20182;-58
2022/11/16 06:21:48;;;;;;;77.93;34.90;;;;;;;6.21;100.00;-11016.94;5051699;28;20186;-59
2022/11/16 06:24:15;;;;;;;75.37;33.00;;;;;;;6.47;100.00;-11336.56;5052014;28;20181;-58
2022/11/16 06:26:42;;;;;;;74.60;34.60;;;;;;;6.11;100.00;-10699.44;5051937;28;20655;-58
2022/11/16 06:29:09;;;;;;;64.00;33.90;;;;;;;6.56;100.00;-11021.41;5051370;28;20304;-59
2022/11/16 06:31:37;;;;;;;67.90;33.13;;;;;;;6.71;100.00;-11339.72;5051142;28;20233;-58
2022/11/16 06:34:06;;;;;;;66.53;32.27;;;;;;;6.79;100.00;-11657.25;5050582;28;20182;-58
2022/11/16 06:36:33;;;;;;;68.67;31.77;;;;;;;6.81;100.00;-11657.63;5050126;28;20545;-60
2022/11/16 06:39:01;;;;;;;64.53;32.47;;;;;;;6.94;100.00;-11975.78;5033722;28;20185;-60
2022/11/16 06:41:28;;;;;;;65.37;32.30;;;;;;;7.02;100.00;-11977.03;5051453;28;20215;-59
2022/11/16 06:43:54;;;;;;;74.63;33.47;;;;;;;7.07;100.00;-11344.56;5051339;28;20185;-61
2022/11/16 06:46:23;;;;;;;62.77;30.77;;;;;;;7.13;100.00;-10712.00;5051211;28;20671;-63
2022/11/16 06:48:51;;;;;;;65.87;32.50;;;;;;;7.22;100.00;-11029.81;5051331;28;20258;-59
2022/11/16 06:51:19;;;;;;;57.23;29.93;;;;;;;7.24;100.00;-11030.06;5050978;28;20182;-59
2022/11/16 06:53:45;;;;;;;58.63;31.00;;;;;;;7.38;100.00;-11982.16;5050819;28;20193;-58
2022/11/16 06:56:14;;;;;;;59.20;29.50;;;;;;;7.35;100.00;-10397.84;5050858;28;20189;-60
2022/11/16 06:58:41;;;;;;;67.90;30.57;;;;;;;7.54;100.00;-9766.13;5051012;28;20185;-59
2022/11/16 07:01:10;;;;;;;58.53;29.10;;;;;;;7.41;100.00;-9130.75;5050777;28;20189;-60
2022/11/16 07:03:37;;;;;;;64.07;29.53;;;;;;;7.29;100.00;-9763.41;5050763;28;20197;-59
2022/11/16 07:06:10;;;;;;;58.53;28.20;;;;;;;7.56;100.00;-11351.09;5051082;28;20678;-59
2022/11/16 07:08:37;;;;;;;53.70;28.83;;;;;;;7.67;100.00;-11352.50;5051014;28;20664;-59
2022/11/16 07:11:06;;;;;;;59.40;27.80;;;;;;;7.75;100.00;-11036.66;5051032;28;20625;-59
2022/11/16 07:13:33;;;;;;;54.43;27.37;;;;;;;8.09;100.00;-11040.91;5051869;28;20207;-59
2022/11/16 07:16:02;;;;;;;57.70;26.70;;;;;;;8.51;100.00;-9141.44;5054496;28;20221;-60
2022/11/16 07:18:31;;;;;;;49.67;26.47;;;;;;;9.03;100.00;-4375.38;5054264;28;20193;-59
2022/11/16 07:20:59;;;;;;;37.03;22.87;;;;;;;9.62;100.00;3598.38;5054427;28;20181;-59
2022/11/16 07:23:30;;;;;;;39.83;23.43;;;;;;;10.38;100.00;18349.09;5054305;28;20196;-59
2022/11/16 07:26:00;;;;;;;39.00;21.70;;;;;;;11.46;100.00;56247.81;5054365;28;20635;-58
2022/11/16 07:28:29;;;;;;;31.83;21.33;;;;;;;12.59;100.00;141249.38;5054027;28;20580;-59
2022/11/16 07:30:55;;;;;;;37.03;21.67;;;;;;;12.64;100.00;149215.81;5053988;28;20182;-60
2022/11/16 07:33:22;;;;;;;38.77;22.97;;;;;;;12.59;100.00;149204.41;5071827;28;20729;-60
2022/11/16 07:35:50;;;;;;;41.30;22.83;;;;;;;12.67;100.00;149224.66;5073958;28;20184;-57
2022/11/16 07:38:17;;;;;;;43.17;28.83;;;;;;;12.88;100.00;149275.31;5074007;28;20183;-59
2022/11/16 07:40:45;;;;;;;36.73;21.97;;;;;;;12.79;100.00;149253.78;5073783;28;20271;-58
2022/11/16 07:43:12;;;;;;;34.83;22.90;;;;;;;13.00;100.00;149305.69;5074240;28;20228;-60
2022/11/16 07:45:39;;;;;;;34.23;21.87;;;;;;;13.63;100.00;149465.34;5073821;28;20681;-59
2022/11/16 07:48:06;;;;;;;29.40;21.67;;;;;;;14.46;100.00;149672.03;5074476;28;20687;-59
2022/11/16 07:50:34;;;;;;;32.53;22.40;;;;;;;14.19;100.00;149606.03;5074178;28;20269;-59
2022/11/16 07:53:01;;;;;;;23.63;19.77;;;;;;;14.31;100.00;149635.19;5073596;28;20196;-59
2022/11/16 07:55:30;;;;;;;25.17;19.97;;;;;;;14.58;100.00;149702.44;5073890;28;20192;-58
2022/11/16 07:57:59;;;;;;;29.23;20.63;;;;;;;14.68;100.00;149727.81;5056584;28;20185;-59
2022/11/16 08:00:26;;;;;;;30.00;22.43;;;;;;;15.07;100.00;149826.72;5074107;28;20616;-59
2022/11/16 08:02:53;;;;;;;31.63;23.37;;;;;;;15.52;100.00;149938.44;5073726;28;20185;-59
2022/11/16 08:05:20;;;;;;;31.50;22.17;;;;;;;15.73;100.00;149991.75;5073296;28;20185;-59
2022/11/16 08:07:47;;;;;;;29.93;21.43;;;;;;;15.60;100.00;149957.47;5073589;28;20193;-59
2022/11/16 08:10:14;;;;;;;27.43;21.57;;;;;;;14.65;100.00;149720.19;5073540;28;20193;-59
2022/11/16 08:12:41;;;;;;;31.83;22.37;;;;;;;14.06;100.00;149573.09;5073460;28;20181;-59
2022/11/16 08:15:10;;;;;;;34.73;23.77;;;;;;;13.65;100.00;149470.44;5073517;28;20238;-59
2022/11/16 08:17:37;;;;;;;39.00;24.50;;;;;;;13.65;100.00;149469.19;5073469;28;20176;-59
2022/11/16 08:20:06;;;;;;;32.77;23.63;;;;;;;13.62;100.00;149461.59;5073562;28;20181;-59
2022/11/16 08:22:33;;;;;;;42.47;25.50;;;;;;;13.97;100.00;149550.25;5085927;28;20200;-59
2022/11/16 08:24:59;;;;;;;42.63;26.43;;;;;;;14.28;100.00;149626.31;5093294;28;20191;-60
2022/11/16 08:27:27;;;;;;;41.50;26.40;;;;;;;14.42;100.00;149661.88;5093977;28;20275;-59
2022/11/16 08:29:54;;;;;;;44.30;28.80;;;;;;;15.12;100.00;149838.13;5075685;28;20286;-60
2022/11/16 08:32:28;;;;;;;48.33;27.43;;;;;;;15.39;100.00;149905.41;5093818;28;20582;-60
2022/11/16 08:34:55;;;;;;;44.43;27.50;;;;;;;15.98;100.00;150055.19;5093392;28;20271;-60
2022/11/16 08:37:22;;;;;;;39.97;24.80;;;;;;;16.31;100.00;150136.44;5093705;28;20233;-59
2022/11/16 08:39:49;;;;;;;34.53;24.23;;;;;;;16.74;100.00;150245.69;5093718;28;20202;-59
2022/11/16 08:42:16;;;;;;;37.07;25.47;;;;;;;17.60;100.00;150461.75;5093900;28;20257;-60
2022/11/16 08:44:46;;;;;;;36.47;24.43;;;;;;;18.63;100.00;150721.13;5092708;28;20188;-59
2022/11/16 08:47:13;;;;;;;31.53;23.57;;;;;;;19.91;100.00;151041.81;5093201;28;20287;-60
2022/11/16 08:49:41;;;;;;;35.85;23.55;;;;;;;19.26;100.00;150878.88;5075458;28;20237;-60
2022/11/16 08:52:08;;;;;;;33.42;22.55;;;;;;;20.28;100.00;151136.06;5093125;28;20188;-59
2022/11/16 08:54:35;;;;;;;29.92;23.40;;;;;;;20.95;100.00;151305.50;5093854;28;20639;-59
2022/11/16 08:57:02;;;;;;;32.60;22.63;;;;;;;20.71;100.00;151243.09;5093533;28;20271;-61
2022/11/16 08:59:29;;;;;;;38.67;22.88;;;;;;;21.69;98.31;151490.28;5075534;28;20634;-60
2022/11/16 09:01:56;;;;;;;27.95;22.50;;;;;;;23.20;85.89;151873.00;5093264;28;20202;-60
2022/11/16 09:04:26;;;;;;;40.17;28.70;;;;;;;23.67;82.27;151990.44;5076023;28;20615;-59
2022/11/16 09:06:54;;;;;;;34.25;25.02;;;;;;;24.00;78.85;152074.69;5092835;28;20192;-60
2022/11/16 09:09:21;;;;;;;33.10;23.15;;;;;;;24.46;75.78;152190.91;5093494;28;20231;-60
2022/11/16 09:11:51;;;;;;;28.13;23.55;;;;;;;25.02;73.51;152332.72;5093082;28;20184;-60
2022/11/16 09:14:18;;;;;;;25.42;21.42;;;;;;;25.39;67.54;152424.69;5093133;28;20189;-61
2022/11/16 09:16:45;;;;;;;22.35;20.02;;;;;;;25.55;64.18;152465.63;5093248;28;20619;-59
2022/11/16 09:19:12;;;;;;;21.52;19.52;;;;;;;24.94;68.37;152312.28;5092933;28;20687;-60
2022/11/16 09:21:39;;;;;;;22.33;20.05;;;;;;;25.74;63.54;152512.94;5072657;28;20648;-60
2022/11/16 09:24:11;;;;;;;21.02;19.13;;;;;;;26.71;58.91;152759.72;5073041;28;20643;-60
2022/11/16 09:26:38;;;;;;;19.95;18.00;;;;;;;26.42;57.91;152684.28;5072874;28;20631;-59
2022/11/16 09:29:12;;;;;;;19.70;17.60;;;;;;;26.97;55.68;152823.72;5072414;28;20231;-59
2022/11/16 09:31:39;;;;;;;26.73;22.88;;;;;;;27.15;54.34;152869.78;5068678;28;20729;-59
2022/11/16 09:34:06;;;;;;;17.67;15.68;;;;;;;25.51;58.35;152455.34;5052630;28;20185;-60
2022/11/16 09:36:33;;;;;;;17.75;16.13;;;;;;;23.13;71.43;151853.81;5051775;28;20189;-59
2022/11/16 09:39:00;;;;;;;17.98;16.20;;;;;;;22.26;79.68;151634.41;5052467;28;20595;-59
2022/11/16 09:41:47;;;;;;;18.67;16.92;;;;;;;21.73;83.76;151501.75;5052946;28;20672;-60
2022/11/16 09:44:26;;;;;;;19.02;17.30;;;;;;;21.85;86.28;151531.09;5034904;28;20587;-59
2022/11/16 09:46:57;;;;;;;21.20;19.30;;;;;;;22.21;83.20;151622.94;5052292;28;20205;-60
2022/11/16 09:49:28;;;;;;;20.25;18.10;;;;;;;21.94;83.81;151552.81;5052056;28;20217;-63
2022/11/16 09:52:00;;;;;;;23.58;19.40;;;;;;;21.10;88.75;151341.13;5052347;28;20513;-59
2022/11/16 09:54:31;;;;;;;20.08;18.10;;;;;;;20.42;95.04;151170.47;5052214;28;20186;-60
2022/11/16 09:57:05;;;;;;;22.95;19.58;;;;;;;20.51;95.53;151193.38;5052190;28;20594;-59
2022/11/16 09:59:37;;;;;;;24.50;20.63;;;;;;;20.94;92.54;151301.66;5052232;28;20185;-59
2022/11/16 10:02:18;;;;;;;20.48;18.42;;;;;;;21.63;88.91;151476.28;5052424;28;20612;-61
2022/11/16 10:04:52;;;;;;;24.60;18.27;;;;;;;21.60;87.21;151468.59;5051822;28;20189;-60
2022/11/16 10:07:24;;;;;;;18.95;17.00;;;;;;;21.58;85.50;151462.25;5052309;28;20640;-60
2022/11/16 10:09:52;;;;;;;19.75;17.23;;;;;;;21.92;82.55;151547.66;5052529;28;20205;-61
2022/11/16 10:12:31;;;;;;;18.90;16.98;;;;;;;22.08;77.72;151589.78;5051904;28;20225;-60
2022/11/16 10:15:41;;;;;;;17.58;15.93;;;;;;;22.82;74.73;151776.03;5051274;28;20235;-60
2022/11/16 10:18:19;;;;;;;19.38;17.60;;;;;;;24.04;68.66;152084.88;5042249;28;20189;-59
2022/11/16 10:21:00;;;;;;;19.42;17.30;;;;;;;24.34;65.26;152158.97;5051447;28;20691;-60
2022/11/16 10:23:38;;;;;;;21.27;16.98;;;;;;;24.76;63.88;152266.25;5051368;28;20185;-59
2022/11/16 10:26:17;;;;;;;20.40;17.73;;;;;;;24.60;64.09;152225.38;5050962;28;20566;-61
2022/11/16 10:28:58;;;;;;;20.55;17.73;;;;;;;23.96;67.26;152063.19;5050964;28;20219;-60
2022/11/16 10:31:37;;;;;;;18.83;17.13;;;;;;;23.81;69.96;152026.13;5049377;28;20200;-60
2022/11/16 10:34:08;;;;;;;20.15;18.17;;;;;;;23.02;76.11;151825.75;5049218;28;20215;-59
2022/11/16 10:36:37;;;;;;;19.17;17.20;;;;;;;23.44;75.93;151931.72;5051441;28;20189;-59
2022/11/16 10:39:12;;;;;;;27.45;17.65;;;;;;;24.00;72.26;152074.69;5051432;28;20273;-60
2022/11/16 10:41:43;;;;;;;18.42;16.73;;;;;;;24.49;67.99;152197.25;5051153;28;20656;-59
2022/11/16 10:44:19;;;;;;;17.85;16.38;;;;;;;25.36;63.87;152417.03;5050336;28;20185;-59
2022/11/16 10:46:56;;;;;;;16.48;15.13;;;;;;;25.42;61.94;152432.34;5049952;28;20197;-59
2022/11/16 10:49:34;;;;;;;17.75;16.17;;;;;;;24.44;65.32;152185.78;5054240;28;20659;-59
2022/11/16 10:52:01;;;;;;;17.00;15.68;;;;;;;24.34;65.89;152160.25;5055040;28;20189;-59
2022/11/16 10:54:30;;;;;;;17.08;15.82;;;;;;;23.05;74.92;151834.69;5055693;28;20185;-60
2022/11/16 10:57:03;;;;;;;15.98;14.75;;;;;;;23.66;71.28;151989.16;5055313;28;20185;-59
2022/11/16 10:59:43;;;;;;;15.13;13.60;;;;;;;23.99;67.53;152072.13;5055268;28;20186;-59
2022/11/16 11:02:33;;;;;;;14.93;13.85;;;;;;;24.24;69.99;152134.72;5037758;28;20192;-59
2022/11/16 11:05:16;;;;;;;15.73;14.05;;;;;;;25.36;61.28;152418.34;5055190;28;20624;-59
2022/11/16 11:07:49;;;;;;;15.68;14.23;;;;;;;26.46;58.95;152695.78;5054959;28;20189;-59
2022/11/16 11:10:27;;;;;;;16.15;14.43;;;;;;;27.75;52.09;153020.81;5055170;28;20241;-60
2022/11/16 11:13:03;;;;;;;14.63;13.48;;;;;;;28.18;50.16;153130.88;5055055;28;20203;-59
2022/11/16 11:15:32;;;;;;;13.27;12.40;;;;;;;26.83;52.82;152789.13;5055359;28;20316;-59
2022/11/16 11:18:17;;;;;;;13.00;12.00;;;;;;;25.31;60.91;152404.25;5054453;28;20201;-59
2022/11/16 11:20:47;;;;;;;14.75;12.98;;;;;;;23.67;70.41;151991.72;5054944;28;20595;-59
2022/11/16 11:23:17;;;;;;;16.05;13.15;;;;;;;22.71;78.20;151749.22;5054696;28;20185;-59
2022/11/16 11:25:53;;;;;;;13.13;11.75;;;;;;;21.81;85.55;151522.16;5054411;28;20232;-60
2022/11/16 11:28:25;;;;;;;13.48;12.20;;;;;;;20.58;97.57;151209.97;5054850;28;20197;-59
2022/11/16 11:31:01;;;;;;;13.10;11.83;;;;;;;20.39;100.00;151164.09;5054641;28;20209;-58
2022/11/16 11:33:31;;;;;;;12.23;11.33;;;;;;;19.83;100.00;151021.44;5054570;28;20259;-59
2022/11/16 11:36:03;;;;;;;15.10;12.07;;;;;;;19.59;100.00;150962.94;5054342;28;20239;-59
2022/11/16 11:38:30;;;;;;;13.90;12.63;;;;;;;19.41;100.00;150917.03;5054287;28;20186;-59
2022/11/16 11:41:00;;;;;;;13.53;12.23;;;;;;;19.19;100.00;150861.03;5054541;28;20660;-58
2022/11/16 11:43:28;;;;;;;13.23;12.23;;;;;;;18.84;100.00;150772.03;5046698;28;20209;-60
2022/11/16 11:46:04;;;;;;;16.17;12.37;;;;;;;18.83;100.00;150769.47;5054263;28;20193;-58
2022/11/16 11:48:40;;;;;;;13.60;12.57;;;;;;;18.67;100.00;150731.28;5054129;28;20192;-59
2022/11/16 11:51:13;;;;;;;15.10;14.00;;;;;;;18.30;100.00;150637.13;5054094;28;20211;-59
2022/11/16 11:53:52;;;;;;;14.30;12.87;;;;;;;18.24;100.00;150621.91;5053949;28;20189;-59
2022/11/16 11:56:20;;;;;;;12.90;12.20;;;;;;;17.97;100.00;150554.50;5054134;28;20185;-59
2022/11/16 11:58:48;;;;;;;12.67;11.73;;;;;;;18.08;100.00;150582.47;5053549;28;20185;-59
2022/11/16 12:01:40;;;;;;;13.47;12.27;;;;;;;18.11;100.00;150588.84;5053542;28;20225;-58